Accueil
METAR-TAF:

METAR-TAF

Aéroports :

Base aérienne Cameri

Novare, Italie

latitude: 45-31N, longitude: 008-40E, altitude: 178 m

Observation

Le bulletin a été fait il y a 1 heure et 2 minutes, à 14:55 UTC
Vent 5 kt de sud/sud-est
Température 16°C
Humidité 51%
Pression 1010 hPa
Visibilité 10 km ou plus
pas de nuages en-dessous de 1500 mètres et pas de cumulonimbus.

METAR: LIMN 271455Z 15005KT CAVOK 16/06 Q1010 RMK FEW FEW100 VIS MIN 9999 BLU

Heure: 16:57 (15:57 UTC)

Prévision

Le bulletin a été fait il y a 1 heure et 57 minutes, à 14:00 UTC
Prévision valable du 27 à 15 UTC au 27 à 24 UTC
Vent 6 kt de sud-est
Visibilité 10 km ou plus
Quelques nuages à une hauteur de 5000 ft
Evoluant progressivement
du 27 à 18 UTC au 27 à 20 UTC
Vent 5 kt de nord
Temporairement
du 27 à 21 UTC au 27 à 24 UTC
Visibilité: 3000 m
brume

TAF: LIMN 271400Z 2715/2724 14006KT 9999 FEW050 BECMG 2718/2720 01005KT TEMPO 2721/2724 3000 BR NSC

Observations et prévisions météorologiques de plus de 4000 aéroports (messages METAR et TAF).

Les stations disponibles sont représentées par des disques jaunes et rouges sur la carte.

Passer la souris dessus pour voir le nom de la station.

Cliquer dessus pour voir les observations et prévisions météorologiques.

Pour changer de carte: cliquez sur les boutons verts avec une croix noire pour zoomer, sur le bouton vert avec un tiret pour effectuer un zoom arrière, ou sur les flèches vertes pour les cartes adjacentes.


METAR-TAF: